Terminal Aerodrome Forecast
Issued by NWS Shreveport, LA

Home | Current Version | Previous Version | Text Only | Print | Product List | Glossary On
Versions: 1 2 3 4 5 6 7 8 9 10 11 12 13 14 15 16 17 18 19 20 21
755
FTUS44 KSHV 281500 AAA
TAFGGG
TAF AMD
KGGG 281500Z 2815/0112 20013G22KT P6SM BKN025
     FM282100 19015G24KT P6SM BKN035 BKN250
     FM010000 18012KT P6SM BKN040
     FM010500 18015G21KT P6SM OVC015=

USA.gov is the U.S. government's official web portal to all federal, state and local government web resources and services.